sensor_id;sensor_type;location;lat;lon;timestamp;temperature;humidity
62555;DHT22;48610;52.144;8.624;2022-08-07T13:07:13;25.30;67.50
62555;DHT22;48610;52.144;8.624;2022-08-07T13:17:01;25.40;64.70
62555;DHT22;48610;52.144;8.624;2022-08-07T13:20:24;25.40;60.90
62555;DHT22;48610;52.144;8.624;2022-08-07T13:24:01;25.40;61.00
62555;DHT22;48610;52.144;8.624;2022-08-07T13:27:36;25.60;60.10
62555;DHT22;48610;52.144;8.624;2022-08-07T13:30:41;25.80;61.40
62555;DHT22;48610;52.144;8.624;2022-08-07T13:33:57;25.50;59.80
62555;DHT22;48610;52.144;8.624;2022-08-07T13:37:04;25.60;60.80
62555;DHT22;48610;52.144;8.624;2022-08-07T13:43:20;25.70;61.60
62555;DHT22;48610;52.144;8.624;2022-08-07T13:46:29;25.70;59.60
62555;DHT22;48610;52.144;8.624;2022-08-07T13:49:36;25.70;58.80
62555;DHT22;48610;52.144;8.624;2022-08-07T13:52:42;26.10;61.70
62555;DHT22;48610;52.144;8.624;2022-08-07T13:55:45;26.40;62.50
62555;DHT22;48610;52.144;8.624;2022-08-07T13:58:47;26.20;61.80
62555;DHT22;48610;52.144;8.624;2022-08-07T14:02:09;26.00;59.00
62555;DHT22;48610;52.144;8.624;2022-08-07T14:05:13;26.00;59.00
62555;DHT22;48610;52.144;8.624;2022-08-07T14:08:23;25.80;58.40
62555;DHT22;48610;52.144;8.624;2022-08-07T14:11:27;25.50;57.40
62555;DHT22;48610;52.144;8.624;2022-08-07T14:14:51;25.20;56.70
62555;DHT22;48610;52.144;8.624;2022-08-07T14:17:56;25.30;59.50
62555;DHT22;48610;52.144;8.624;2022-08-07T14:21:10;25.30;60.00
62555;DHT22;48610;52.144;8.624;2022-08-07T14:27:32;25.90;57.80
62555;DHT22;48610;52.144;8.624;2022-08-07T14:30:34;26.00;59.70
62555;DHT22;48610;52.144;8.624;2022-08-07T14:33:36;25.90;59.70
62555;DHT22;48610;52.144;8.624;2022-08-07T14:36:38;26.10;57.50
62555;DHT22;48610;52.144;8.624;2022-08-07T14:39:41;26.00;59.10
62555;DHT22;48610;52.144;8.624;2022-08-07T14:42:43;26.10;60.60
62555;DHT22;48610;52.144;8.624;2022-08-07T14:45:53;25.90;58.80
62555;DHT22;48610;52.144;8.624;2022-08-07T14:48:56;25.70;59.90
62555;DHT22;48610;52.144;8.624;2022-08-07T14:51:58;25.70;61.20
62555;DHT22;48610;52.144;8.624;2022-08-07T14:55:00;25.40;59.70
62555;DHT22;48610;52.144;8.624;2022-08-07T14:58:02;25.50;58.30
62555;DHT22;48610;52.144;8.624;2022-08-07T15:01:05;25.70;61.70
62555;DHT22;48610;52.144;8.624;2022-08-07T15:04:06;25.90;59.20
62555;DHT22;48610;52.144;8.624;2022-08-07T15:07:09;26.00;58.70
62555;DHT22;48610;52.144;8.624;2022-08-07T15:10:17;26.00;58.60
62555;DHT22;48610;52.144;8.624;2022-08-07T15:13:21;25.70;62.10
62555;DHT22;48610;52.144;8.624;2022-08-07T15:19:50;25.70;58.60
62555;DHT22;48610;52.144;8.624;2022-08-07T15:22:53;25.60;60.30
62555;DHT22;48610;52.144;8.624;2022-08-07T15:25:57;25.40;60.60
62555;DHT22;48610;52.144;8.624;2022-08-07T15:28:59;25.30;62.00
62555;DHT22;48610;52.144;8.624;2022-08-07T15:32:02;25.10;62.00
62555;DHT22;48610;52.144;8.624;2022-08-07T15:35:05;25.30;60.30
62555;DHT22;48610;52.144;8.624;2022-08-07T15:38:12;25.20;61.20
62555;DHT22;48610;52.144;8.624;2022-08-07T15:41:16;25.00;61.10
62555;DHT22;48610;52.144;8.624;2022-08-07T15:44:20;24.80;61.80
62555;DHT22;48610;52.144;8.624;2022-08-07T15:47:23;24.60;60.50
62555;DHT22;48610;52.144;8.624;2022-08-07T15:50:31;24.70;60.20
62555;DHT22;48610;52.144;8.624;2022-08-07T15:53:32;24.90;61.30
62555;DHT22;48610;52.144;8.624;2022-08-07T15:56:37;24.70;60.50
62555;DHT22;48610;52.144;8.624;2022-08-07T15:59:38;24.70;62.40
62555;DHT22;48610;52.144;8.624;2022-08-07T16:02:44;24.80;61.30
62555;DHT22;48610;52.144;8.624;2022-08-07T16:05:51;24.70;63.40
62555;DHT22;48610;52.144;8.624;2022-08-07T16:08:54;24.80;61.20
62555;DHT22;48610;52.144;8.624;2022-08-07T16:22:01;24.40;63.30
62555;DHT22;48610;52.144;8.624;2022-08-07T16:25:26;24.70;60.80
62555;DHT22;48610;52.144;8.624;2022-08-07T16:32:06;24.40;61.30
62555;DHT22;48610;52.144;8.624;2022-08-07T16:35:17;24.40;61.50
62555;DHT22;48610;52.144;8.624;2022-08-07T16:38:58;24.40;61.60
62555;DHT22;48610;52.144;8.624;2022-08-07T16:45:50;24.20;61.80
62555;DHT22;48610;52.144;8.624;2022-08-07T16:52:22;24.20;61.00
62555;DHT22;48610;52.144;8.624;2022-08-07T16:55:51;24.10;62.00
62555;DHT22;48610;52.144;8.624;2022-08-07T16:59:18;24.30;61.10
62555;DHT22;48610;52.144;8.624;2022-08-07T17:09:02;24.40;60.70
62555;DHT22;48610;52.144;8.624;2022-08-07T17:19:17;24.00;63.00
62555;DHT22;48610;52.144;8.624;2022-08-07T17:22:02;23.80;63.10
62555;DHT22;48610;52.144;8.624;2022-08-07T17:25:12;23.90;62.70
62555;DHT22;48610;52.144;8.624;2022-08-07T17:28:14;24.00;63.10
62555;DHT22;48610;52.144;8.624;2022-08-07T17:31:21;24.10;63.10
62555;DHT22;48610;52.144;8.624;2022-08-07T17:37:31;23.90;61.90
62555;DHT22;48610;52.144;8.624;2022-08-07T17:40:44;24.00;63.60
62555;DHT22;48610;52.144;8.624;2022-08-07T17:43:51;23.90;63.00
62555;DHT22;48610;52.144;8.624;2022-08-07T17:46:58;23.60;63.10
62555;DHT22;48610;52.144;8.624;2022-08-07T17:50:35;23.40;64.10
62555;DHT22;48610;52.144;8.624;2022-08-07T17:53:40;23.30;66.00
62555;DHT22;48610;52.144;8.624;2022-08-07T17:59:58;23.20;66.30
62555;DHT22;48610;52.144;8.624;2022-08-07T18:06:20;22.90;66.40
62555;DHT22;48610;52.144;8.624;2022-08-07T18:09:27;23.00;66.10
62555;DHT22;48610;52.144;8.624;2022-08-07T18:16:13;22.80;66.40
62555;DHT22;48610;52.144;8.624;2022-08-07T18:22:28;22.70;67.10
62555;DHT22;48610;52.144;8.624;2022-08-07T18:25:34;22.70;67.40
62555;DHT22;48610;52.144;8.624;2022-08-07T18:28:54;22.70;68.10
62555;DHT22;48610;52.144;8.624;2022-08-07T18:42:19;22.50;68.40
62555;DHT22;48610;52.144;8.624;2022-08-07T18:45:26;22.40;69.30
62555;DHT22;48610;52.144;8.624;2022-08-07T18:48:41;22.20;69.50
62555;DHT22;48610;52.144;8.624;2022-08-07T18:55:23;22.00;70.90
62555;DHT22;48610;52.144;8.624;2022-08-07T18:58:28;21.90;71.60
62555;DHT22;48610;52.144;8.624;2022-08-07T19:04:50;21.50;72.70
62555;DHT22;48610;52.144;8.624;2022-08-07T19:11:05;21.30;74.40
62555;DHT22;48610;52.144;8.624;2022-08-07T19:14:57;21.20;75.00
62555;DHT22;48610;52.144;8.624;2022-08-07T19:18:18;21.00;76.00
62555;DHT22;48610;52.144;8.624;2022-08-07T19:21:39;21.00;76.50
62555;DHT22;48610;52.144;8.624;2022-08-07T19:24:42;20.80;76.30
62555;DHT22;48610;52.144;8.624;2022-08-07T19:27:47;20.70;76.30
62555;DHT22;48610;52.144;8.624;2022-08-07T19:30:57;20.50;77.20
62555;DHT22;48610;52.144;8.624;2022-08-07T19:34:07;20.40;77.00
62555;DHT22;48610;52.144;8.624;2022-08-07T19:37:11;20.30;78.30
62555;DHT22;48610;52.144;8.624;2022-08-07T19:40:13;20.20;78.20
62555;DHT22;48610;52.144;8.624;2022-08-07T19:43:22;20.10;78.70
62555;DHT22;48610;52.144;8.624;2022-08-07T19:46:28;20.00;78.50
62555;DHT22;48610;52.144;8.624;2022-08-07T19:49:30;19.90;79.50
62555;DHT22;48610;52.144;8.624;2022-08-07T19:52:32;19.70;79.70
62555;DHT22;48610;52.144;8.624;2022-08-07T19:55:33;19.60;80.40
62555;DHT22;48610;52.144;8.624;2022-08-07T19:58:34;19.60;81.10
62555;DHT22;48610;52.144;8.624;2022-08-07T20:01:35;19.50;81.80
62555;DHT22;48610;52.144;8.624;2022-08-07T20:04:41;19.50;81.90
62555;DHT22;48610;52.144;8.624;2022-08-07T20:07:44;19.40;82.40
62555;DHT22;48610;52.144;8.624;2022-08-07T20:10:53;19.20;82.40
62555;DHT22;48610;52.144;8.624;2022-08-07T20:13:56;19.10;82.90
62555;DHT22;48610;52.144;8.624;2022-08-07T20:17:02;19.00;83.60
62555;DHT22;48610;52.144;8.624;2022-08-07T20:20:03;18.90;83.80
62555;DHT22;48610;52.144;8.624;2022-08-07T20:23:10;18.90;84.10
62555;DHT22;48610;52.144;8.624;2022-08-07T20:26:13;18.80;84.50
62555;DHT22;48610;52.144;8.624;2022-08-07T20:29:16;18.70;84.30
62555;DHT22;48610;52.144;8.624;2022-08-07T20:32:22;18.60;83.90
62555;DHT22;48610;52.144;8.624;2022-08-07T20:35:30;18.50;87.90
62555;DHT22;48610;52.144;8.624;2022-08-07T20:38:34;18.50;87.50
62555;DHT22;48610;52.144;8.624;2022-08-07T20:41:35;18.50;86.80
62555;DHT22;48610;52.144;8.624;2022-08-07T20:44:40;18.50;86.20
62555;DHT22;48610;52.144;8.624;2022-08-07T20:47:43;18.40;86.90
62555;DHT22;48610;52.144;8.624;2022-08-07T20:50:45;18.30;87.80
62555;DHT22;48610;52.144;8.624;2022-08-07T20:53:45;18.30;87.50
62555;DHT22;48610;52.144;8.624;2022-08-07T20:56:48;18.30;86.90
62555;DHT22;48610;52.144;8.624;2022-08-07T20:59:51;18.20;87.20
62555;DHT22;48610;52.144;8.624;2022-08-07T21:02:55;18.10;89.70
62555;DHT22;48610;52.144;8.624;2022-08-07T21:06:02;18.10;90.20
62555;DHT22;48610;52.144;8.624;2022-08-07T21:09:09;18.00;90.00
62555;DHT22;48610;52.144;8.624;2022-08-07T21:12:12;18.00;90.30
62555;DHT22;48610;52.144;8.624;2022-08-07T21:15:13;17.90;90.20
62555;DHT22;48610;52.144;8.624;2022-08-07T21:18:17;17.80;90.00
62555;DHT22;48610;52.144;8.624;2022-08-07T21:21:20;17.80;90.50
62555;DHT22;48610;52.144;8.624;2022-08-07T21:24:31;17.70;90.40
62555;DHT22;48610;52.144;8.624;2022-08-07T21:37:48;17.70;91.10
62555;DHT22;48610;52.144;8.624;2022-08-07T21:41:06;17.60;91.10
62555;DHT22;48610;52.144;8.624;2022-08-07T21:47:36;17.50;91.30
62555;DHT22;48610;52.144;8.624;2022-08-07T22:04:33;17.10;93.50
62555;DHT22;48610;52.144;8.624;2022-08-07T22:07:35;17.20;93.00
62555;DHT22;48610;52.144;8.624;2022-08-07T22:10:41;17.20;93.60
62555;DHT22;48610;52.144;8.624;2022-08-07T22:13:44;17.20;93.80
62555;DHT22;48610;52.144;8.624;2022-08-07T22:16:57;17.10;94.50
62555;DHT22;48610;52.144;8.624;2022-08-07T22:20:14;17.00;94.90
62555;DHT22;48610;52.144;8.624;2022-08-07T22:23:25;16.90;95.20
62555;DHT22;48610;52.144;8.624;2022-08-07T22:26:50;16.80;95.90
62555;DHT22;48610;52.144;8.624;2022-08-07T22:30:02;16.70;95.80
62555;DHT22;48610;52.144;8.624;2022-08-07T22:33:06;16.70;95.90
62555;DHT22;48610;52.144;8.624;2022-08-07T22:36:28;16.80;95.90
62555;DHT22;48610;52.144;8.624;2022-08-07T22:39:58;16.90;95.50
62555;DHT22;48610;52.144;8.624;2022-08-07T22:43:07;16.90;95.90
62555;DHT22;48610;52.144;8.624;2022-08-07T22:46:17;16.80;95.90
62555;DHT22;48610;52.144;8.624;2022-08-07T22:52:49;16.60;97.00
62555;DHT22;48610;52.144;8.624;2022-08-07T22:55:58;16.50;97.50
62555;DHT22;48610;52.144;8.624;2022-08-07T22:59:15;16.30;97.70
62555;DHT22;48610;52.144;8.624;2022-08-07T23:02:23;16.30;98.50
62555;DHT22;48610;52.144;8.624;2022-08-07T23:12:18;16.20;99.70
62555;DHT22;48610;52.144;8.624;2022-08-07T23:18:48;15.80;99.90
62555;DHT22;48610;52.144;8.624;2022-08-07T23:42:24;16.00;99.90
62555;DHT22;48610;52.144;8.624;2022-08-07T23:51:56;15.60;99.90
62555;DHT22;48610;52.144;8.624;2022-08-07T23:55:22;15.40;99.90
